Weather observations for the past three days for
Tinian Island, N. Mariana Is, West Tinian Airport
| Date | Time (chst) | Wind (mph) | Vis. (mi.) | Weather | Sky Cond. | Temperature (ºF) | Relative Humidity | Wind Chill (°F) | Heat Index (°F) | Pressure | Precipitation (in) | ||||||
|---|---|---|---|---|---|---|---|---|---|---|---|---|---|---|---|---|---|
| Air | Dwpt | 6 hour | altimeter (in) | sea level (mb) | 1 hr | 3 hr | 6 hr | ||||||||||
| Max. | Min. | ||||||||||||||||
| 08 | 18:50 | E 16 | 7.00 | Mostly Cloudy | SCT018 BKN100 | 84.2 | 75.2 | 74% | 92 | 29.93 | 0.0 | ||||||
| 08 | 17:55 | E 12 | 7.00 | Mostly Cloudy | SCT018 BKN100 | 84.2 | 75.2 | 74% | 92 | 29.89 | 0.0 | ||||||
| 08 | 16:55 | E 12 | 7.00 | Mostly Cloudy | SCT018 BKN120 | 84.2 | 75.2 | 74% | 92 | 29.87 | 0.0 | ||||||
| 08 | 15:55 | E 14 | 7.00 | Partly Cloudy | SCT018 SCT040 SCT100 | 86 | 75.2 | 70% | 95 | 29.87 | 0.0 | ||||||
| 08 | 14:55 | E 16 | 7.00 | Mostly Cloudy | SCT018 BKN140 | 82.4 | 77 | 84% | 91 | 29.88 | 0.0 | ||||||
| 08 | 13:55 | E 16 | 7.00 | Mostly Cloudy | SCT018 BKN140 | 82.4 | 77 | 84% | 91 | 29.89 | 0.0 | ||||||
| 08 | 12:55 | E 16 | 7.00 | Mostly Cloudy | SCT018 SCT030 BKN120 | 86 | 77 | 75% | 97 | 29.89 | 0.0 | ||||||
| 08 | 11:55 | E 17 | 7.00 | Partly Cloudy | SCT018 SCT140 | 84.2 | 77 | 79% | 94 | 29.9 | 0.0 | ||||||
| 08 | 10:55 | E 16 | 7.00 | Partly Cloudy | SCT018 | 84.2 | 75.2 | 74% | 92 | 29.9 | 0.0 | ||||||
| 08 | 09:55 | E 17 | 7.00 | Partly Cloudy | SCT018 | 84.2 | 75.2 | 74% | 92 | 29.92 | 0.0 | ||||||
| 08 | 08:55 | E 16 | 7.00 | Partly Cloudy | SCT017 | 84.2 | 75.2 | 74% | 92 | 29.92 | 0.0 | ||||||
| 08 | 07:58 | E 16 | 7.00 | Partly Cloudy | SCT017 | 82.4 | 75.2 | 79% | 89 | 29.92 | 0.0 | ||||||
| 07 | 18:55 | E 14 | 7.00 | Mostly Cloudy | SCT017 SCT030 BKN100 | 82.4 | 78.8 | 89% | 92 | 29.89 | 0.0 | ||||||
| 07 | 17:55 | E 14 | 7.00 | Mostly Cloudy | SCT017 BKN040 BKN100 | 84.2 | 78.8 | 84% | 96 | 29.87 | 0.0 | ||||||
| 07 | 16:55 | E 14 | 7.00 | Partly Cloudy | SCT017 SCT120 | 86 | 78.8 | 79% | 99 | 29.85 | 0.0 | ||||||
| 07 | 15:55 | E 14 | 7.00 | Mostly Cloudy | SCT017 BKN040 BKN100 | 86 | 78.8 | 79% | 99 | 29.85 | 0.0 | ||||||
| 07 | 14:55 | E 14 | 7.00 | Mostly Cloudy | SCT017 BKN040 BKN100 | 86 | 78.8 | 79% | 99 | 29.86 | 0.0 | ||||||
| 07 | 13:55 | E 12 | 7.00 | Mostly Cloudy | SCT017 SCT040 BKN100 | 86 | 78.8 | 79% | 99 | 29.87 | 0.0 | ||||||
| 07 | 12:55 | E 14 | 7.00 | Partly Cloudy | SCT017 SCT040 SCT120 | 86 | 78.8 | 79% | 99 | 29.89 | 0.0 | ||||||
| 07 | 11:55 | E 12 | 7.00 | Partly Cloudy | SCT017 SCT120 | 84.2 | 78.8 | 84% | 96 | 29.9 | 0.0 | ||||||
| 07 | 10:59 | E 12 | 7.00 | Light Rain | SCT018 SCT140 | 82.4 | 77 | 84% | 91 | 29.9 | 0.0 | ||||||
| 07 | 09:55 | E 12 | 7.00 | Partly Cloudy | SCT018 SCT140 | 82.4 | 77 | 84% | 91 | 29.92 | 0.0 | ||||||
| 07 | 08:55 | E 16 | 7.00 | Mostly Cloudy | SCT017 BKN040 BKN120 | 82.4 | 77 | 84% | 91 | 29.92 | 0.0 | ||||||
| 07 | 07:55 | E 14 | 7.00 | Partly Cloudy | SCT018 SCT100 | 82.4 | 78.8 | 89% | 92 | 29.92 | 0.0 | ||||||
| 06 | 18:55 | E 14 | 7.00 | Partly Cloudy | SCT018 SCT120 | 82.4 | 78.8 | 89% | 92 | 29.9 | 0.0 | ||||||
| 06 | 17:55 | E 14 | 7.00 | Partly Cloudy | SCT018 SCT120 | 86 | 80.6 | 84% | 102 | 29.89 | 0.0 | ||||||
| 06 | 16:55 | E 14 | 7.00 | Mostly Cloudy | SCT018 BKN120 | 87.8 | 80.6 | 79% | 105 | 29.87 | 0.0 | ||||||
| 06 | 15:55 | E 16 | 7.00 | Mostly Cloudy | SCT018 BKN120 | 87.8 | 78.8 | 75% | 102 | 29.88 | 0.0 | ||||||
| 06 | 14:55 | E 16 | 7.00 | Mostly Cloudy | SCT017 BKN100 | 87.8 | 78.8 | 75% | 102 | 29.88 | 0.0 | ||||||
| 06 | 13:55 | E 14 | 7.00 | Light Rain | SCT017 SCT030 BKN080 | 84.2 | 77 | 79% | 94 | 29.88 | 0.0 | ||||||
| 06 | 12:55 | E 14 | 7.00 | Light Rain | SCT016 SCT030 BKN080 | 82.4 | 77 | 84% | 91 | 29.9 | 0.0 | ||||||
| 06 | 11:55 | E 16 | 7.00 | Partly Cloudy | SCT018 | 84.2 | 77 | 79% | 94 | 29.22 | 0.0 | ||||||
| 06 | 10:55 | E 14 | 7.00 | Mostly Cloudy | SCT018 SCT040 BKN120 | 82.4 | 77 | 84% | 91 | 29.93 | 0.0 | ||||||
| 06 | 09:55 | E 16 | 7.00 | Partly Cloudy | SCT018 SCT100 | 84.2 | 77 | 79% | 94 | 29.93 | 0.0 | ||||||
| 06 | 08:55 | E 16 | 7.00 | Mostly Cloudy | SCT018 BKN100 | 82.4 | 77 | 84% | 91 | 29.94 | 0.0 | ||||||
| 06 | 07:55 | E 14 | 7.00 | Mostly Cloudy | SCT017 BKN080 | 82.4 | 77 | 84% | 91 | 29.93 | 0.0 | ||||||
| Date | Time (chst) | Wind (mph) | Vis. (mi.) | Weather | Sky Cond. | Air | Dwpt | Max. | Min. | Relative Humidity | Wind Chill (°F) | Heat Index (°F) | altimeter (in) | sea level (mb) | 1 hr | 3 hr | 6 hr |
| 6 hour | |||||||||||||||||
| Temperature (ºF) | Pressure | Precipitation (in) | |||||||||||||||